sensor_id;sensor_type;location;lat;lon;timestamp;temperature;humidity
25346;DHT22;13300;51.032;3.710;2023-02-26T00:03:35;4.50;99.90
25346;DHT22;13300;51.032;3.710;2023-02-26T00:11:57;4.40;99.90
25346;DHT22;13300;51.032;3.710;2023-02-26T00:14:32;4.40;99.90
25346;DHT22;13300;51.032;3.710;2023-02-26T00:42:15;4.10;99.90
25346;DHT22;13300;51.032;3.710;2023-02-26T00:45:01;4.10;99.90
25346;DHT22;13300;51.032;3.710;2023-02-26T00:54:23;4.30;99.90
25346;DHT22;13300;51.032;3.710;2023-02-26T01:00:21;4.10;99.90
25346;DHT22;13300;51.032;3.710;2023-02-26T01:03:09;4.00;99.90
25346;DHT22;13300;51.032;3.710;2023-02-26T01:05:58;4.10;99.90
25346;DHT22;13300;51.032;3.710;2023-02-26T01:09:03;4.00;99.90
25346;DHT22;13300;51.032;3.710;2023-02-26T01:12:07;4.00;99.90
25346;DHT22;13300;51.032;3.710;2023-02-26T01:14:51;4.00;99.90
25346;DHT22;13300;51.032;3.710;2023-02-26T02:08:08;5.30;99.90
25346;DHT22;13300;51.032;3.710;2023-02-26T02:10:57;5.20;99.90
25346;DHT22;13300;51.032;3.710;2023-02-26T02:27:20;5.40;99.90
25346;DHT22;13300;51.032;3.710;2023-02-26T02:33:14;5.50;99.90
25346;DHT22;13300;51.032;3.710;2023-02-26T02:36:19;5.40;99.90
25346;DHT22;13300;51.032;3.710;2023-02-26T02:50:37;5.30;99.90
25346;DHT22;13300;51.032;3.710;2023-02-26T03:44:35;4.50;99.90
25346;DHT22;13300;51.032;3.710;2023-02-26T04:32:22;3.50;99.90
25346;DHT22;13300;51.032;3.710;2023-02-26T05:20:15;3.10;99.90
25346;DHT22;13300;51.032;3.710;2023-02-26T05:23:45;3.10;99.90
25346;DHT22;13300;51.032;3.710;2023-02-26T05:36:54;2.90;99.90
25346;DHT22;13300;51.032;3.710;2023-02-26T05:42:47;2.70;99.90
25346;DHT22;13300;51.032;3.710;2023-02-26T05:45:38;2.80;99.90
25346;DHT22;13300;51.032;3.710;2023-02-26T05:54:13;2.70;99.90
25346;DHT22;13300;51.032;3.710;2023-02-26T05:57:02;2.80;99.90
25346;DHT22;13300;51.032;3.710;2023-02-26T05:59:51;2.80;99.90
25346;DHT22;13300;51.032;3.710;2023-02-26T06:02:45;2.80;99.90
25346;DHT22;13300;51.032;3.710;2023-02-26T06:05:44;2.80;99.90
25346;DHT22;13300;51.032;3.710;2023-02-26T06:08:29;2.70;99.90
25346;DHT22;13300;51.032;3.710;2023-02-26T06:10:57;2.70;99.90
25346;DHT22;13300;51.032;3.710;2023-02-26T06:13:52;2.70;99.90
25346;DHT22;13300;51.032;3.710;2023-02-26T06:16:26;2.60;99.90
25346;DHT22;13300;51.032;3.710;2023-02-26T06:19:17;2.70;99.90
25346;DHT22;13300;51.032;3.710;2023-02-26T06:22:05;2.60;99.90
25346;DHT22;13300;51.032;3.710;2023-02-26T06:25:02;2.70;99.90
25346;DHT22;13300;51.032;3.710;2023-02-26T06:28:15;2.70;99.90
25346;DHT22;13300;51.032;3.710;2023-02-26T06:53:25;2.50;99.90
25346;DHT22;13300;51.032;3.710;2023-02-26T06:56:23;2.60;99.90
25346;DHT22;13300;51.032;3.710;2023-02-26T06:59:08;2.60;99.90
25346;DHT22;13300;51.032;3.710;2023-02-26T07:01:47;2.60;99.90
25346;DHT22;13300;51.032;3.710;2023-02-26T07:04:22;2.80;99.90
25346;DHT22;13300;51.032;3.710;2023-02-26T07:07:06;3.20;99.90
25346;DHT22;13300;51.032;3.710;2023-02-26T07:09:39;3.70;99.90
25346;DHT22;13300;51.032;3.710;2023-02-26T07:12:10;4.20;99.90
25346;DHT22;13300;51.032;3.710;2023-02-26T07:14:44;4.80;99.90
25346;DHT22;13300;51.032;3.710;2023-02-26T07:17:18;5.40;99.90
25346;DHT22;13300;51.032;3.710;2023-02-26T07:20:09;6.00;99.90
25346;DHT22;13300;51.032;3.710;2023-02-26T07:23:15;6.60;99.90
25346;DHT22;13300;51.032;3.710;2023-02-26T07:26:29;7.00;99.90
25346;DHT22;13300;51.032;3.710;2023-02-26T07:29:41;7.50;99.90
25346;DHT22;13300;51.032;3.710;2023-02-26T07:33:24;8.00;99.90
25346;DHT22;13300;51.032;3.710;2023-02-26T07:36:26;8.20;99.90
25346;DHT22;13300;51.032;3.710;2023-02-26T07:41:55;8.60;99.90
25346;DHT22;13300;51.032;3.710;2023-02-26T07:44:26;8.90;99.90
25346;DHT22;13300;51.032;3.710;2023-02-26T07:46:56;9.10;99.50
25346;DHT22;13300;51.032;3.710;2023-02-26T07:49:29;9.30;99.20
25346;DHT22;13300;51.032;3.710;2023-02-26T07:52:04;9.90;98.50
25346;DHT22;13300;51.032;3.710;2023-02-26T07:54:52;10.40;97.50
25346;DHT22;13300;51.032;3.710;2023-02-26T07:57:21;10.60;96.30
25346;DHT22;13300;51.032;3.710;2023-02-26T07:59:49;11.00;95.80
25346;DHT22;13300;51.032;3.710;2023-02-26T08:02:54;10.90;95.10
25346;DHT22;13300;51.032;3.710;2023-02-26T08:05:30;10.80;94.70
25346;DHT22;13300;51.032;3.710;2023-02-26T08:07:58;10.80;94.70
25346;DHT22;13300;51.032;3.710;2023-02-26T08:10:32;10.90;94.50
25346;DHT22;13300;51.032;3.710;2023-02-26T08:13:43;11.10;94.10
25346;DHT22;13300;51.032;3.710;2023-02-26T08:16:18;11.60;93.30
25346;DHT22;13300;51.032;3.710;2023-02-26T08:18:47;11.80;92.20
25346;DHT22;13300;51.032;3.710;2023-02-26T08:21:13;11.90;92.20
25346;DHT22;13300;51.032;3.710;2023-02-26T08:23:40;12.20;91.90
25346;DHT22;13300;51.032;3.710;2023-02-26T08:26:11;12.30;91.40
25346;DHT22;13300;51.032;3.710;2023-02-26T08:28:53;12.10;90.70
25346;DHT22;13300;51.032;3.710;2023-02-26T08:31:38;12.20;91.50
25346;DHT22;13300;51.032;3.710;2023-02-26T08:34:04;12.40;90.90
25346;DHT22;13300;51.032;3.710;2023-02-26T08:36:39;12.70;91.20
25346;DHT22;13300;51.032;3.710;2023-02-26T08:39:11;12.40;90.10
25346;DHT22;13300;51.032;3.710;2023-02-26T08:41:40;12.10;90.20
25346;DHT22;13300;51.032;3.710;2023-02-26T08:44:45;12.10;90.10
25346;DHT22;13300;51.032;3.710;2023-02-26T08:47:43;11.80;90.20
25346;DHT22;13300;51.032;3.710;2023-02-26T08:50:10;12.10;90.30
25346;DHT22;13300;51.032;3.710;2023-02-26T08:59:00;12.40;89.00
25346;DHT22;13300;51.032;3.710;2023-02-26T09:02:05;12.30;90.20
25346;DHT22;13300;51.032;3.710;2023-02-26T09:04:33;12.40;88.70
25346;DHT22;13300;51.032;3.710;2023-02-26T09:07:47;12.70;87.90
25346;DHT22;13300;51.032;3.710;2023-02-26T09:10:57;13.00;85.70
25346;DHT22;13300;51.032;3.710;2023-02-26T09:17:10;12.00;86.20
25346;DHT22;13300;51.032;3.710;2023-02-26T09:19:46;12.20;85.40
25346;DHT22;13300;51.032;3.710;2023-02-26T09:22:50;12.00;84.50
25346;DHT22;13300;51.032;3.710;2023-02-26T09:28:29;12.80;84.30
25346;DHT22;13300;51.032;3.710;2023-02-26T13:49:51;14.80;67.80
25346;DHT22;13300;51.032;3.710;2023-02-26T14:35:55;14.20;69.80
25346;DHT22;13300;51.032;3.710;2023-02-26T15:33:23;7.70;89.30
25346;DHT22;13300;51.032;3.710;2023-02-26T15:36:59;7.80;90.50
25346;DHT22;13300;51.032;3.710;2023-02-26T15:56:30;7.70;91.80
25346;DHT22;13300;51.032;3.710;2023-02-26T15:59:21;7.70;91.80
25346;DHT22;13300;51.032;3.710;2023-02-26T16:02:25;7.50;92.10
25346;DHT22;13300;51.032;3.710;2023-02-26T16:25:59;6.80;93.30
25346;DHT22;13300;51.032;3.710;2023-02-26T16:40:14;6.80;94.50
25346;DHT22;13300;51.032;3.710;2023-02-26T16:43:01;6.80;94.70
25346;DHT22;13300;51.032;3.710;2023-02-26T16:45:41;6.70;95.20
25346;DHT22;13300;51.032;3.710;2023-02-26T17:06:29;6.50;98.90
25346;DHT22;13300;51.032;3.710;2023-02-26T17:30:10;6.00;99.90
25346;DHT22;13300;51.032;3.710;2023-02-26T17:39:48;6.00;99.90
25346;DHT22;13300;51.032;3.710;2023-02-26T17:42:34;6.10;99.90
25346;DHT22;13300;51.032;3.710;2023-02-26T17:48:00;5.90;99.90
25346;DHT22;13300;51.032;3.710;2023-02-26T17:50:54;5.90;99.90
25346;DHT22;13300;51.032;3.710;2023-02-26T18:13:36;5.90;99.90
25346;DHT22;13300;51.032;3.710;2023-02-26T18:16:19;5.90;99.90
25346;DHT22;13300;51.032;3.710;2023-02-26T18:19:23;5.80;99.90
25346;DHT22;13300;51.032;3.710;2023-02-26T18:31:39;5.70;99.90
25346;DHT22;13300;51.032;3.710;2023-02-26T18:34:32;5.60;99.90
25346;DHT22;13300;51.032;3.710;2023-02-26T18:37:11;5.60;99.90
25346;DHT22;13300;51.032;3.710;2023-02-26T18:43:08;5.70;99.90
25346;DHT22;13300;51.032;3.710;2023-02-26T18:46:00;5.60;99.90
25346;DHT22;13300;51.032;3.710;2023-02-26T18:48:55;5.50;99.90
25346;DHT22;13300;51.032;3.710;2023-02-26T18:51:54;5.50;99.90
25346;DHT22;13300;51.032;3.710;2023-02-26T18:54:41;5.50;99.90
25346;DHT22;13300;51.032;3.710;2023-02-26T18:59:41;5.50;99.90
25346;DHT22;13300;51.032;3.710;2023-02-26T19:08:42;5.50;99.90
25346;DHT22;13300;51.032;3.710;2023-02-26T19:11:49;5.30;99.90
25346;DHT22;13300;51.032;3.710;2023-02-26T19:14:56;5.40;99.90
25346;DHT22;13300;51.032;3.710;2023-02-26T19:17:29;5.30;99.90
25346;DHT22;13300;51.032;3.710;2023-02-26T19:20:11;5.20;99.90
25346;DHT22;13300;51.032;3.710;2023-02-26T19:25:49;5.20;99.90
25346;DHT22;13300;51.032;3.710;2023-02-26T19:28:36;5.20;99.90
25346;DHT22;13300;51.032;3.710;2023-02-26T19:35:32;5.10;99.90
25346;DHT22;13300;51.032;3.710;2023-02-26T19:38:59;5.20;99.90
25346;DHT22;13300;51.032;3.710;2023-02-26T19:41:35;5.10;99.90
25346;DHT22;13300;51.032;3.710;2023-02-26T19:44:29;5.20;99.90
25346;DHT22;13300;51.032;3.710;2023-02-26T19:47:19;5.20;99.90
25346;DHT22;13300;51.032;3.710;2023-02-26T19:50:00;5.20;99.90
25346;DHT22;13300;51.032;3.710;2023-02-26T19:52:30;5.20;99.90
25346;DHT22;13300;51.032;3.710;2023-02-26T19:55:22;5.00;99.90
25346;DHT22;13300;51.032;3.710;2023-02-26T20:02:02;5.10;99.90
25346;DHT22;13300;51.032;3.710;2023-02-26T20:04:47;4.90;99.90
25346;DHT22;13300;51.032;3.710;2023-02-26T20:07:59;4.90;99.90
25346;DHT22;13300;51.032;3.710;2023-02-26T20:10:52;4.90;99.90
25346;DHT22;13300;51.032;3.710;2023-02-26T20:14:14;4.90;99.90
25346;DHT22;13300;51.032;3.710;2023-02-26T20:17:06;4.90;99.90
25346;DHT22;13300;51.032;3.710;2023-02-26T20:20:36;4.80;99.90
25346;DHT22;13300;51.032;3.710;2023-02-26T20:26:37;4.80;99.90
25346;DHT22;13300;51.032;3.710;2023-02-26T20:48:29;4.70;99.90
25346;DHT22;13300;51.032;3.710;2023-02-26T20:58:53;4.60;99.90
25346;DHT22;13300;51.032;3.710;2023-02-26T21:41:40;4.30;99.90
25346;DHT22;13300;51.032;3.710;2023-02-26T22:02:01;4.00;99.90
25346;DHT22;13300;51.032;3.710;2023-02-26T22:05:48;4.10;99.90
25346;DHT22;13300;51.032;3.710;2023-02-26T22:37:26;3.70;99.90
25346;DHT22;13300;51.032;3.710;2023-02-26T22:54:38;3.70;99.90
25346;DHT22;13300;51.032;3.710;2023-02-26T23:01:22;3.60;99.90
25346;DHT22;13300;51.032;3.710;2023-02-26T23:11:18;3.60;99.90
25346;DHT22;13300;51.032;3.710;2023-02-26T23:14:56;3.50;99.90
25346;DHT22;13300;51.032;3.710;2023-02-26T23:25:36;3.60;99.90
25346;DHT22;13300;51.032;3.710;2023-02-26T23:29:09;3.50;99.90
25346;DHT22;13300;51.032;3.710;2023-02-26T23:32:44;3.40;99.90
25346;DHT22;13300;51.032;3.710;2023-02-26T23:36:07;3.40;99.90
25346;DHT22;13300;51.032;3.710;2023-02-26T23:39:48;3.30;99.90
25346;DHT22;13300;51.032;3.710;2023-02-26T23:43:38;3.40;99.90
25346;DHT22;13300;51.032;3.710;2023-02-26T23:52:04;3.30;99.90
